TimeCDT,TemperatureF,Dew PointF,Humidity,Sea Level PressureIn,VisibilityMPH,Wind Direction,Wind SpeedMPH,Gust SpeedMPH,PrecipitationIn,Events,Conditions,WindDirDegrees,DateUTC
12:53 AM,73.0,68.0,84,29.85,8.0,Variable,5.8,21.9,N/A,,Overcast,0,2013-05-16 05:53:00
1:18 AM,69.1,62.1,78,29.90,3.0,NNE,10.4,21.9,0.01,Rain,Rain,20,2013-05-16 06:18:00
1:38 AM,66.9,62.1,84,29.93,5.0,North,10.4,-,0.02,Rain-Thunderstorm,Light Rain,360,2013-05-16 06:38:00
1:50 AM,66.2,62.6,88,29.93,4.0,Variable,4.6,-,0.05,Rain-Thunderstorm,Light Thunderstorms and Rain,0,2013-05-16 06:50:00
1:53 AM,66.0,62.1,87,29.88,2.0,Variable,3.5,-,0.10,Rain-Thunderstorm,Heavy Thunderstorms and Rain,0,2013-05-16 06:53:00
2:00 AM,64.9,62.1,90,29.92,1.8,NE,5.8,-,0.03,Rain-Thunderstorm,Light Thunderstorms and Rain,50,2013-05-16 07:00:00
2:02 AM,64.9,62.1,90,29.92,2.5,NNE,8.1,-,0.03,Rain-Thunderstorm,Light Thunderstorms and Rain,30,2013-05-16 07:02:00
2:09 AM,64.9,61.0,87,29.88,8.0,ESE,11.5,-,0.03,Rain-Thunderstorm,Light Thunderstorms and Rain,110,2013-05-16 07:09:00
2:21 AM,64.9,62.1,90,29.89,10.0,South,10.4,-,0.03,Rain,Light Rain,180,2013-05-16 07:21:00
2:33 AM,66.0,62.1,87,29.84,4.0,SSE,18.4,33.4,0.05,Rain-Thunderstorm,Thunderstorms and Rain,150,2013-05-16 07:33:00
2:48 AM,66.2,64.4,94,29.82,10.0,SSE,12.7,18.4,0.05,Rain-Thunderstorm,Light Rain,160,2013-05-16 07:48:00
2:53 AM,66.9,63.0,87,29.77,10.0,South,16.1,25.3,0.05,Rain-Thunderstorm,Light Rain,180,2013-05-16 07:53:00
3:03 AM,70.0,66.0,87,29.81,10.0,SSE,12.7,26.5,0.00,,Partly Cloudy,160,2013-05-16 08:03:00
3:53 AM,69.1,66.0,90,29.78,10.0,South,11.5,21.9,0.00,,Mostly Cloudy,170,2013-05-16 08:53:00
4:08 AM,68.0,66.0,93,29.84,8.0,South,11.5,-,N/A,,Overcast,170,2013-05-16 09:08:00
4:27 AM,69.1,66.9,93,29.83,4.0,SSE,11.5,21.9,N/A,,Overcast,160,2013-05-16 09:27:00
4:53 AM,69.1,68.0,96,29.80,3.0,SSE,9.2,-,N/A,,Overcast,160,2013-05-16 09:53:00
5:53 AM,69.1,66.9,93,29.79,5.0,SSE,11.5,18.4,N/A,,Overcast,160,2013-05-16 10:53:00
6:51 AM,69.8,66.2,88,29.85,5.0,South,11.5,19.6,N/A,,Overcast,170,2013-05-16 11:51:00
6:53 AM,69.1,66.9,93,29.80,5.0,SSE,11.5,23.0,N/A,,Overcast,160,2013-05-16 11:53:00
7:05 AM,69.1,66.9,93,29.85,4.0,SSE,10.4,23.0,N/A,,Overcast,160,2013-05-16 12:05:00
7:31 AM,69.1,66.9,93,29.84,2.5,South,13.8,20.7,N/A,,Overcast,170,2013-05-16 12:31:00
7:53 AM,69.1,66.9,93,29.81,2.5,South,10.4,21.9,N/A,,Overcast,170,2013-05-16 12:53:00
8:40 AM,69.1,66.9,93,29.85,2.5,South,10.4,23.0,N/A,,Overcast,170,2013-05-16 13:40:00
8:53 AM,69.1,66.9,93,29.81,2.5,South,13.8,23.0,N/A,,Overcast,170,2013-05-16 13:53:00
9:10 AM,69.1,66.9,93,29.86,2.5,South,13.8,23.0,N/A,,Overcast,180,2013-05-16 14:10:00
9:53 AM,69.1,66.9,93,29.82,2.0,South,13.8,20.7,N/A,,Overcast,170,2013-05-16 14:53:00
10:00 AM,69.1,66.9,93,29.86,1.8,South,15.0,20.7,N/A,,Overcast,180,2013-05-16 15:00:00
10:35 AM,70.0,68.0,93,29.86,2.0,South,12.7,-,N/A,,Overcast,180,2013-05-16 15:35:00
10:53 AM,70.0,66.9,90,29.82,3.0,South,10.4,-,N/A,,Overcast,180,2013-05-16 15:53:00
11:14 AM,71.1,68.0,90,29.86,4.0,South,12.7,18.4,N/A,,Overcast,170,2013-05-16 16:14:00
11:31 AM,72.0,68.0,87,29.85,5.0,South,11.5,20.7,N/A,,Overcast,170,2013-05-16 16:31:00
11:53 AM,73.0,68.0,84,29.81,5.0,South,13.8,-,N/A,,Haze,180,2013-05-16 16:53:00
12:26 PM,75.0,68.0,79,29.85,6.0,South,11.5,20.7,N/A,,Haze,170,2013-05-16 17:26:00
12:50 PM,77.0,68.0,74,29.84,7.0,South,15.0,23.0,N/A,,Overcast,180,2013-05-16 17:50:00
12:53 PM,75.9,68.0,76,29.79,7.0,South,11.5,20.7,N/A,,Overcast,180,2013-05-16 17:53:00
1:36 PM,80.1,69.1,69,29.83,7.0,South,11.5,21.9,N/A,,Scattered Clouds,170,2013-05-16 18:36:00
1:53 PM,80.1,69.1,69,29.78,7.0,South,10.4,17.3,N/A,,Partly Cloudy,170,2013-05-16 18:53:00
2:53 PM,82.9,69.1,63,29.76,8.0,SSE,11.5,20.7,N/A,,Clear,150,2013-05-16 19:53:00
3:53 PM,86.0,70.0,59,29.74,9.0,SSE,9.2,-,N/A,,Clear,150,2013-05-16 20:53:00
4:53 PM,88.0,70.0,55,29.72,9.0,SSE,10.4,20.7,N/A,,Clear,160,2013-05-16 21:53:00
5:53 PM,88.0,68.0,51,29.71,10.0,SE,10.4,-,N/A,,Clear,140,2013-05-16 22:53:00
6:53 PM,87.1,66.9,51,29.70,10.0,SSE,6.9,-,N/A,,Clear,150,2013-05-16 23:53:00
7:53 PM,84.9,66.9,55,29.71,9.0,SE,4.6,-,N/A,,Clear,140,2013-05-17 00:53:00
8:53 PM,82.0,68.0,62,29.73,10.0,SE,6.9,-,N/A,,Clear,130,2013-05-17 01:53:00
9:53 PM,80.1,71.1,74,29.75,8.0,SE,8.1,-,N/A,,Clear,140,2013-05-17 02:53:00
10:53 PM,77.0,71.1,82,29.78,7.0,SSE,8.1,-,N/A,,Clear,150,2013-05-17 03:53:00
11:21 PM,75.9,71.1,85,29.82,6.0,SSE,10.4,17.3,N/A,,Haze,150,2013-05-17 04:21:00
11:34 PM,75.9,71.1,85,29.82,6.0,SSE,9.2,-,N/A,,Haze,150,2013-05-17 04:34:00
11:53 PM,75.9,71.1,85,29.78,5.0,SSE,10.4,18.4,N/A,,Haze,160,2013-05-17 04:53:00